createdAt,value
2018-06-05T00:01:16.090Z,20.80
2018-06-05T00:03:44.621Z,20.80
2018-06-05T00:06:13.077Z,20.70
2018-06-05T00:08:41.617Z,20.70
2018-06-05T00:11:10.054Z,20.70
2018-06-05T00:13:38.506Z,20.70
2018-06-05T00:16:07.772Z,20.60
2018-06-05T00:18:36.215Z,20.60
2018-06-05T00:21:04.694Z,20.40
2018-06-05T00:23:33.173Z,20.30
2018-06-05T00:26:01.631Z,20.20
2018-06-05T00:28:30.751Z,20.20
2018-06-05T00:30:59.250Z,20.20
2018-06-05T00:33:27.711Z,20.20
2018-06-05T00:35:56.158Z,20.30
2018-06-05T00:38:25.324Z,20.30
2018-06-05T00:40:54.346Z,20.40
2018-06-05T00:43:22.802Z,20.40
2018-06-05T00:45:51.949Z,20.50
2018-06-05T00:48:20.446Z,20.40
2018-06-05T00:50:48.911Z,20.40
2018-06-05T00:53:17.458Z,20.50
2018-06-05T00:55:45.970Z,20.50
2018-06-05T01:07:23.804Z,20.50
2018-06-05T01:09:52.305Z,20.40
2018-06-05T01:12:20.763Z,20.10
2018-06-05T01:14:49.283Z,20.00
2018-06-05T01:17:17.742Z,20.00
2018-06-05T01:19:46.179Z,20.00
2018-06-05T01:31:35.266Z,20.00
2018-06-05T01:34:03.738Z,20.00
2018-06-05T01:36:32.174Z,19.60
2018-06-05T01:39:00.658Z,19.60
2018-06-05T01:41:29.110Z,19.60
2018-06-05T01:43:57.566Z,19.50
2018-06-05T01:46:26.038Z,19.60
2018-06-05T01:48:54.773Z,19.50
2018-06-05T01:51:23.225Z,19.50
2018-06-05T01:53:52.055Z,19.60
2018-06-05T01:56:20.541Z,19.50
2018-06-05T01:58:48.993Z,19.50
2018-06-05T02:01:17.538Z,19.40
2018-06-05T02:03:45.982Z,19.40
2018-06-05T02:06:15.603Z,19.40
2018-06-05T02:08:44.050Z,19.40
2018-06-05T02:11:12.502Z,19.30
2018-06-05T02:13:40.937Z,19.30
2018-06-05T02:16:09.774Z,19.30
2018-06-05T02:18:38.199Z,19.30
2018-06-05T02:21:06.657Z,19.30
2018-06-05T02:23:35.140Z,19.20
2018-06-05T02:26:03.602Z,19.20
2018-06-05T02:28:32.074Z,19.10
2018-06-05T02:31:00.553Z,19.10
2018-06-05T02:33:29.736Z,19.00
2018-06-05T02:35:58.199Z,18.90
2018-06-05T02:38:27.357Z,18.90
2018-06-05T02:40:55.808Z,19.00
2018-06-05T02:43:24.274Z,19.00
2018-06-05T02:45:52.774Z,19.00
2018-06-05T02:48:21.276Z,18.90
2018-06-05T02:50:49.730Z,18.90
2018-06-05T02:53:18.389Z,18.90
2018-06-05T02:55:46.873Z,18.90
2018-06-05T03:07:20.685Z,18.70
2018-06-05T03:09:49.126Z,18.80
2018-06-05T03:12:17.600Z,18.30
2018-06-05T03:14:46.073Z,18.30
2018-06-05T03:31:34.341Z,18.40
2018-06-05T03:34:03.317Z,18.40
2018-06-05T03:36:31.846Z,18.00
2018-06-05T03:39:00.378Z,18.00
2018-06-05T03:41:30.079Z,18.20
2018-06-05T03:43:58.602Z,18.10
2018-06-05T03:46:27.074Z,18.20
2018-06-05T03:48:55.517Z,18.20
2018-06-05T03:51:23.985Z,18.20
2018-06-05T03:53:52.707Z,18.20
2018-06-05T03:56:21.167Z,18.20
2018-06-05T03:58:49.602Z,18.10
2018-06-05T04:01:18.091Z,18.20
2018-06-05T04:03:46.566Z,18.20
2018-06-05T04:06:16.586Z,18.20
2018-06-05T04:08:45.060Z,18.30
2018-06-05T04:30:36.511Z,18.40
2018-06-05T04:35:41.767Z,17.60
2018-06-05T04:38:10.287Z,17.60
2018-06-05T04:40:38.824Z,17.70
2018-06-05T04:43:07.319Z,17.80
2018-06-05T04:45:35.799Z,17.90
2018-06-05T04:48:04.295Z,18.00
2018-06-05T04:50:32.912Z,18.10
2018-06-05T04:53:01.659Z,18.20
2018-06-05T04:55:30.183Z,18.30
2018-06-05T05:00:28.125Z,18.50
2018-06-05T05:05:24.919Z,18.60
2018-06-05T05:07:53.418Z,18.40
2018-06-05T05:10:22.018Z,18.40
2018-06-05T05:12:50.551Z,18.30
2018-06-05T05:15:19.038Z,18.50
2018-06-05T05:17:47.522Z,18.50
2018-06-05T05:29:35.985Z,18.50
2018-06-05T05:32:04.491Z,18.60
2018-06-05T05:34:33.050Z,19.20
2018-06-05T05:37:01.880Z,19.60
2018-06-05T05:39:30.382Z,20.00
2018-06-05T05:41:58.870Z,20.70
2018-06-05T05:46:55.618Z,22.80
2018-06-05T05:49:24.070Z,24.00
2018-06-05T05:51:52.921Z,25.10
2018-06-05T05:54:21.438Z,25.50
2018-06-05T05:56:49.904Z,25.90
2018-06-05T05:59:18.513Z,26.60
2018-06-05T06:01:47.051Z,26.90
2018-06-05T06:04:17.378Z,27.60
2018-06-05T06:06:45.935Z,28.20
2018-06-05T06:19:57.043Z,28.30
2018-06-05T06:22:25.583Z,28.60
2018-06-05T06:24:54.067Z,30.60
2018-06-05T06:27:22.587Z,31.20
2018-06-05T06:29:51.130Z,31.40
2018-06-05T06:32:19.624Z,31.40
2018-06-05T06:34:48.142Z,32.30
2018-06-05T06:37:18.073Z,32.60
2018-06-05T06:39:46.526Z,33.40
2018-06-05T07:00:23.778Z,33.80
2018-06-05T07:02:52.282Z,34.60
2018-06-05T07:05:20.871Z,37.90
2018-06-05T07:07:49.456Z,38.00
2018-06-05T07:10:18.000Z,38.30
2018-06-05T07:12:46.479Z,38.80
2018-06-05T07:31:33.866Z,39.20
2018-06-05T07:34:02.347Z,40.00
2018-06-05T07:36:30.822Z,40.80
2018-06-05T07:39:02.689Z,40.70
2018-06-05T07:41:32.241Z,41.10
2018-06-05T07:44:00.712Z,41.20
2018-06-05T07:46:29.196Z,41.70
2018-06-05T07:48:57.647Z,41.70
2018-06-05T07:53:54.358Z,42.40
2018-06-05T07:56:22.947Z,42.50
2018-06-05T07:58:51.460Z,42.50
2018-06-05T08:01:19.974Z,42.20
2018-06-05T08:03:48.519Z,42.40
2018-06-05T08:06:17.576Z,42.80
2018-06-05T08:08:46.095Z,43.10
2018-06-05T08:17:21.706Z,42.90
2018-06-05T08:19:56.606Z,43.30
2018-06-05T08:22:29.262Z,43.20
2018-06-05T08:24:57.755Z,43.70
2018-06-05T08:27:26.291Z,43.90
2018-06-05T08:29:54.802Z,44.60
2018-06-05T08:32:23.296Z,45.10
2018-06-05T08:34:51.746Z,45.50
2018-06-05T08:37:21.055Z,45.70
2018-06-05T08:39:50.054Z,45.60
2018-06-05T08:42:18.590Z,45.80
2018-06-05T08:44:47.327Z,46.30
2018-06-05T09:06:38.849Z,46.20
2018-06-05T09:11:46.526Z,46.60
2018-06-05T09:25:05.629Z,47.10
2018-06-05T09:27:34.092Z,47.80
2018-06-05T09:30:02.534Z,48.30
2018-06-05T09:32:31.023Z,48.80
2018-06-05T09:34:59.468Z,48.90
2018-06-05T09:37:27.937Z,48.80
2018-06-05T09:39:57.278Z,48.70
2018-06-05T09:42:25.741Z,48.60
2018-06-05T09:44:54.183Z,47.80
2018-06-05T09:47:23.351Z,47.50
2018-06-05T09:49:51.779Z,47.40
2018-06-05T09:52:21.027Z,46.40
2018-06-05T09:54:49.546Z,46.60
2018-06-05T09:57:18.033Z,46.70
2018-06-05T09:59:46.542Z,45.90
2018-06-05T10:20:33.006Z,44.80
2018-06-05T10:23:03.313Z,42.60
2018-06-05T10:25:31.858Z,33.90
2018-06-05T10:28:00.402Z,33.10
2018-06-05T10:30:28.866Z,32.90
2018-06-05T10:32:57.336Z,32.80
2018-06-05T10:35:25.858Z,32.80
2018-06-05T10:37:54.322Z,32.50
2018-06-05T10:40:23.478Z,32.40
2018-06-05T10:42:52.450Z,32.50
2018-06-05T10:45:20.918Z,32.60
2018-06-05T10:47:49.398Z,32.70
2018-06-05T10:50:17.898Z,32.50
2018-06-05T10:52:46.486Z,32.30
2018-06-05T11:05:57.679Z,32.30
2018-06-05T11:08:26.126Z,32.30
2018-06-05T11:10:54.652Z,30.90
2018-06-05T11:13:23.147Z,30.80
2018-06-05T11:15:51.603Z,30.80
2018-06-05T11:18:20.444Z,30.70
2018-06-05T11:20:48.933Z,30.50
2018-06-05T11:23:17.502Z,30.50
2018-06-05T11:25:45.960Z,30.40
2018-06-05T11:31:35.024Z,30.60
2018-06-05T11:34:03.638Z,30.60
2018-06-05T11:36:32.147Z,30.50
2018-06-05T11:39:00.698Z,30.50
2018-06-05T11:41:30.515Z,30.50
2018-06-05T11:43:59.330Z,30.60
2018-06-05T11:46:27.975Z,30.70
2018-06-05T11:48:56.427Z,30.80
2018-06-05T11:51:25.090Z,30.90
2018-06-05T11:53:54.095Z,31.10
2018-06-05T11:56:22.826Z,31.30
2018-06-05T11:58:51.735Z,31.40
2018-06-05T12:01:20.440Z,31.70
2018-06-05T12:03:49.170Z,31.80
2018-06-05T12:06:17.881Z,31.90
2018-06-05T12:17:30.762Z,31.50
2018-06-05T12:19:59.415Z,31.10
2018-06-05T12:22:28.261Z,30.90
2018-06-05T12:24:57.057Z,30.70
2018-06-05T12:27:25.766Z,30.60
2018-06-05T12:29:54.389Z,30.60
2018-06-05T12:32:22.937Z,30.70
2018-06-05T12:34:51.424Z,30.80
2018-06-05T12:37:19.928Z,30.90
2018-06-05T12:39:49.552Z,30.90
2018-06-05T12:44:46.343Z,31.30
2018-06-05T12:57:45.918Z,31.20
2018-06-05T13:07:56.030Z,31.00
2018-06-05T13:10:24.639Z,30.00
2018-06-05T13:12:53.078Z,30.40
2018-06-05T13:15:21.923Z,30.50
2018-06-05T13:17:50.967Z,30.60
2018-06-05T13:20:19.859Z,30.70
2018-06-05T13:22:48.456Z,30.90
2018-06-05T13:25:17.508Z,30.80
2018-06-05T13:27:45.974Z,30.90
2018-06-05T13:42:13.467Z,31.00
2018-06-05T13:44:43.371Z,31.10
2018-06-05T13:47:11.866Z,30.70
2018-06-05T13:49:40.366Z,30.70
2018-06-05T13:52:08.858Z,30.60
2018-06-05T13:54:37.327Z,30.60
2018-06-05T13:57:05.867Z,30.50
2018-06-05T13:59:37.382Z,30.40
2018-06-05T14:02:05.959Z,30.40
2018-06-05T14:04:34.481Z,30.30
2018-06-05T14:07:02.953Z,30.30
2018-06-05T14:09:31.419Z,30.10
2018-06-05T14:12:02.238Z,30.20
2018-06-05T14:14:30.744Z,30.40
2018-06-05T14:16:59.294Z,30.30
2018-06-05T14:19:27.820Z,30.30
2018-06-05T14:21:56.299Z,30.40
2018-06-05T14:24:24.838Z,30.40
2018-06-05T14:26:54.129Z,30.50
2018-06-05T14:29:23.175Z,30.40
2018-06-05T14:31:51.618Z,30.50
2018-06-05T14:34:20.259Z,30.60
2018-06-05T14:36:48.773Z,30.60
2018-06-05T14:39:17.399Z,30.70
2018-06-05T14:41:45.901Z,30.80
2018-06-05T15:02:24.641Z,30.70
2018-06-05T15:04:53.180Z,30.40
2018-06-05T15:07:21.669Z,28.90
2018-06-05T15:09:50.237Z,29.10
2018-06-05T15:12:18.740Z,29.40
2018-06-05T15:14:47.189Z,29.70
2018-06-05T15:17:17.483Z,29.80
2018-06-05T15:19:45.945Z,29.90
2018-06-05T15:28:12.131Z,30.00
2018-06-05T15:30:40.619Z,30.20
2018-06-05T15:33:09.076Z,30.20
2018-06-05T15:35:37.574Z,30.30
2018-06-05T15:38:06.087Z,30.30
2018-06-05T15:40:35.049Z,30.30
2018-06-05T15:43:03.682Z,30.30
2018-06-05T15:45:32.587Z,30.20
2018-06-05T15:48:01.052Z,30.20
2018-06-05T15:50:29.896Z,30.00
2018-06-05T15:52:59.152Z,30.10
2018-06-05T15:55:27.635Z,30.20
2018-06-05T15:57:56.174Z,30.40
2018-06-05T16:00:24.669Z,30.40
2018-06-05T16:02:53.168Z,30.30
2018-06-05T16:05:21.788Z,30.20
2018-06-05T16:07:50.272Z,30.00
2018-06-05T16:10:18.766Z,30.00
2018-06-05T16:12:47.355Z,29.90
2018-06-05T16:15:17.394Z,30.00
2018-06-05T16:17:46.082Z,29.90
2018-06-05T16:31:34.487Z,30.00
2018-06-05T16:34:02.993Z,30.00
2018-06-05T16:36:31.523Z,29.50
2018-06-05T16:39:00.165Z,29.40
2018-06-05T16:43:56.766Z,29.40
2018-06-05T16:46:25.368Z,29.40
2018-06-05T16:48:54.135Z,29.30
2018-06-05T16:51:22.647Z,29.30
2018-06-05T16:53:51.978Z,29.20
2018-06-05T16:56:20.448Z,29.20
2018-06-05T16:58:48.928Z,29.10
2018-06-05T17:01:17.399Z,29.00
2018-06-05T17:03:45.880Z,29.00
2018-06-05T17:16:54.820Z,29.00
2018-06-05T17:19:23.322Z,28.90
2018-06-05T17:21:51.795Z,28.50
2018-06-05T17:24:20.334Z,28.40
2018-06-05T17:26:48.855Z,28.40
2018-06-05T17:29:17.330Z,28.20
2018-06-05T17:31:45.823Z,28.10
2018-06-05T17:51:49.659Z,28.10
2018-06-05T17:54:19.550Z,28.00
2018-06-05T17:56:50.354Z,27.00
2018-06-05T17:59:18.867Z,26.90
2018-06-05T18:01:47.429Z,26.80
2018-06-05T18:04:17.533Z,26.70
2018-06-05T18:06:46.012Z,26.70
2018-06-05T18:27:33.082Z,26.70
2018-06-05T18:30:01.653Z,26.70
2018-06-05T18:32:30.393Z,26.00
2018-06-05T18:34:59.720Z,26.00
2018-06-05T18:37:28.279Z,25.90
2018-06-05T18:39:56.788Z,25.90
2018-06-05T18:42:25.337Z,25.90
2018-06-05T18:44:54.051Z,25.90
2018-06-05T18:47:22.548Z,25.90
2018-06-05T18:49:51.703Z,25.90
2018-06-05T18:54:49.195Z,26.00
2018-06-05T18:57:18.194Z,25.80
2018-06-05T19:12:48.500Z,25.70
2018-06-05T19:15:17.698Z,25.70
2018-06-05T19:17:46.305Z,25.20
2018-06-05T19:31:35.158Z,25.20
2018-06-05T19:34:03.797Z,25.00
2018-06-05T19:36:32.266Z,24.70
2018-06-05T19:39:00.947Z,24.60
2018-06-05T19:41:29.427Z,24.50
2018-06-05T19:43:58.037Z,24.40
2018-06-05T19:48:54.833Z,24.30
2018-06-05T19:51:23.380Z,24.30
2018-06-05T19:53:51.928Z,24.30
2018-06-05T19:56:21.730Z,24.20
2018-06-05T19:58:50.209Z,24.00
2018-06-05T20:01:18.916Z,24.10
2018-06-05T20:12:32.663Z,23.90
2018-06-05T20:15:01.199Z,23.90
2018-06-05T20:17:29.683Z,23.70
2018-06-05T20:22:26.474Z,23.50
2018-06-05T20:24:55.183Z,23.40
2018-06-05T20:27:23.822Z,23.40
2018-06-05T20:29:52.546Z,23.40
2018-06-05T20:32:21.166Z,23.30
2018-06-05T20:34:49.707Z,23.40
2018-06-05T20:37:18.339Z,23.30
2018-06-05T20:39:46.864Z,23.30
2018-06-05T20:52:43.292Z,23.30
2018-06-05T20:55:11.982Z,23.20
2018-06-05T20:57:41.107Z,22.80
2018-06-05T21:00:09.643Z,22.70
2018-06-05T21:02:39.615Z,22.70
2018-06-05T21:05:08.265Z,22.80
2018-06-05T21:07:36.767Z,22.70
2018-06-05T21:10:05.344Z,22.70
2018-06-05T21:12:33.866Z,22.70
2018-06-05T21:15:02.878Z,22.60
2018-06-05T21:17:31.337Z,22.60
2018-06-05T21:19:59.827Z,22.50
2018-06-05T21:22:28.330Z,22.50
2018-06-05T21:24:56.786Z,22.40
2018-06-05T21:27:25.264Z,22.30
2018-06-05T21:29:53.755Z,22.10
2018-06-05T21:32:22.250Z,22.00
2018-06-05T21:34:50.727Z,21.90
2018-06-05T21:37:19.713Z,21.80
2018-06-05T21:39:48.246Z,21.80
2018-06-05T21:42:17.374Z,21.70
2018-06-05T21:44:45.856Z,21.70
2018-06-05T21:53:24.722Z,21.60
2018-06-05T21:55:53.194Z,21.50
2018-06-05T21:58:23.192Z,21.10
2018-06-05T22:00:51.697Z,21.10
2018-06-05T22:03:20.151Z,21.10
2018-06-05T22:05:48.621Z,21.00
2018-06-05T22:08:17.425Z,21.10
2018-06-05T22:10:45.916Z,21.10
2018-06-05T22:31:36.273Z,21.10
2018-06-05T22:34:04.732Z,21.10
2018-06-05T22:36:33.240Z,19.90
2018-06-05T22:39:01.760Z,19.90
2018-06-05T22:41:30.251Z,19.90
2018-06-05T22:46:26.899Z,20.00
2018-06-05T22:48:55.437Z,20.10
2018-06-05T22:51:23.951Z,20.10
2018-06-05T22:53:52.673Z,20.10
2018-06-05T22:56:21.118Z,20.00
2018-06-05T22:58:50.427Z,20.00
2018-06-05T23:01:18.921Z,20.10
2018-06-05T23:06:16.634Z,20.00
2018-06-05T23:08:45.107Z,20.00
2018-06-05T23:11:22.463Z,19.90
2018-06-05T23:13:51.370Z,19.90
2018-06-05T23:16:19.831Z,19.90
2018-06-05T23:18:48.281Z,19.90
2018-06-05T23:21:18.689Z,19.80
2018-06-05T23:23:47.147Z,19.80
2018-06-05T23:26:16.448Z,19.80
2018-06-05T23:28:44.938Z,19.80
2018-06-05T23:31:13.406Z,19.80
2018-06-05T23:33:41.863Z,19.80
2018-06-05T23:36:10.862Z,19.70
2018-06-05T23:41:07.507Z,19.80
2018-06-05T23:43:35.990Z,19.80
2018-06-05T23:46:04.602Z,19.70
2018-06-05T23:48:33.038Z,19.70
2018-06-05T23:51:01.526Z,19.60
2018-06-05T23:53:29.982Z,19.60
2018-06-05T23:55:58.426Z,19.60
2018-06-05T23:58:26.980Z,19.60
